Accueil
METAR-TAF:

METAR-TAF

Aéroports :

Baie-Comeau, Québec, Canada

Aéroport de Baie-Comeau

latitude: 49-08N, longitude: 068-12W, altitude: 21 m

Observation

Le bulletin a été fait il y a 21 minutes, à 02:00 UTC
Vent 5 kt de ouest
Température -16°C
Humidité 71%
Pression 1038 hPa
Visibilité: 14.5 km
Ciel clair

METAR: CYBC 230200Z AUTO 27005KT 9SM CLR M16/M20 A3065 RMK SLP385

Heure: 21:21 (02:21 UTC)

Prévision

Le bulletin a été fait il y a 43 minutes, à 01:38 UTC
Prévision valable du 23 à 02 UTC au 23 à 14 UTC
Vent 3 kt de direction variable
Visibilité: 10 km
Ciel clair
Evoluant progressivement
du 23 à 05 UTC au 23 à 07 UTC
Vent 3 kt de direction variable

TAF: CYBC 230138Z 2302/2314 VRB03KT P6SM SKC BECMG 2305/2307 VRB03KT RMK FCST BASED ON AUTO OBS. NXT FCST BY 230800Z

Observations et prévisions météorologiques de plus de 4000 aéroports (messages METAR et TAF).

Les stations disponibles sont représentées par des disques jaunes et rouges sur la carte.

Passer la souris dessus pour voir le nom de la station.

Cliquer dessus pour voir les observations et prévisions météorologiques.

Pour changer de carte: cliquez sur les boutons verts avec une croix noire pour zoomer, sur le bouton vert avec un tiret pour effectuer un zoom arrière, ou sur les flèches vertes pour les cartes adjacentes.


METAR-TAF: